Wetterdaten: Woche 04.03.13 - 10.03.13 (KW10)
Datum Zeit Temperatur Luftfeuchte Luftdruck Niederschlag Windrichtung Sonnenschein Solar Wind
04.03.2013 00:00 -2,6 C 90 % 1020,5 hPa 0,0 l/m O 0,00 h 0 W/m 3,7 km/h (1 Bft)
04.03.2013 01:00 -2,7 C 91 % 1020,5 hPa 0,0 l/m O 0,00 h 0 W/m 6,5 km/h (2 Bft)
04.03.2013 02:00 -3,1 C 91 % 1020,4 hPa 0,0 l/m N 0,00 h 0 W/m 6,8 km/h (2 Bft)
04.03.2013 03:00 -3,4 C 92 % 1020,2 hPa 0,0 l/m N-NW 0,00 h 0 W/m 6,1 km/h (2 Bft)
04.03.2013 04:00 -3,9 C 92 % 1020,0 hPa 0,0 l/m N-NW 0,00 h 0 W/m 5,1 km/h (1 Bft)
04.03.2013 05:00 -4,2 C 93 % 1020,0 hPa 0,0 l/m N-NW 0,00 h 0 W/m 5,5 km/h (1 Bft)
04.03.2013 06:00 -4,3 C 94 % 1020,0 hPa 0,0 l/m N 0,00 h 0 W/m 7,4 km/h (2 Bft)
04.03.2013 07:00 -4,3 C 95 % 1020,2 hPa 0,0 l/m N 0,00 h 20 W/m 6,0 km/h (2 Bft)
04.03.2013 08:00 -3,4 C 95 % 1020,5 hPa 0,0 l/m N 0,00 h 75 W/m 4,5 km/h (1 Bft)
04.03.2013 09:00 -2,8 C 95 % 1020,6 hPa 0,0 l/m NO 0,33 h 214 W/m 7,4 km/h (2 Bft)
04.03.2013 10:00 -1,1 C 91 % 1020,3 hPa 0,0 l/m NO 1,00 h 493 W/m 7,2 km/h (2 Bft)
04.03.2013 11:00 0,8 C 86 % 1019,9 hPa 0,0 l/m N-NO 1,00 h 572 W/m 8,3 km/h (2 Bft)
04.03.2013 12:00 2,9 C 80 % 1019,2 hPa 0,0 l/m N-NO 1,00 h 615 W/m 8,8 km/h (2 Bft)
04.03.2013 13:00 5,2 C 70 % 1018,1 hPa 0,0 l/m NO 1,00 h 611 W/m 13,4 km/h (3 Bft)
04.03.2013 14:00 6,7 C 58 % 1017,3 hPa 0,0 l/m O 1,00 h 540 W/m 17,7 km/h (3 Bft)
04.03.2013 15:00 6,6 C 58 % 1016,9 hPa 0,0 l/m O 1,00 h 414 W/m 18,2 km/h (3 Bft)
04.03.2013 16:00 6,2 C 62 % 1016,6 hPa 0,0 l/m O-NO 1,00 h 252 W/m 16,6 km/h (3 Bft)
04.03.2013 17:00 5,3 C 66 % 1016,6 hPa 0,0 l/m O-NO 0,58 h 62 W/m 10,7 km/h (2 Bft)
04.03.2013 18:00 4,1 C 70 % 1016,9 hPa 0,0 l/m O-NO 0,08 h 7 W/m 8,6 km/h (2 Bft)
04.03.2013 19:00 2,8 C 75 % 1016,8 hPa 0,0 l/m O-NO 0,00 h 0 W/m 7,2 km/h (2 Bft)
04.03.2013 20:00 1,7 C 78 % 1016,6 hPa 0,0 l/m NO 0,00 h 0 W/m 6,0 km/h (2 Bft)
04.03.2013 21:00 0,7 C 82 % 1016,5 hPa 0,0 l/m NO 0,00 h 0 W/m 4,7 km/h (1 Bft)
04.03.2013 22:00 -0,2 C 84 % 1016,2 hPa 0,0 l/m NO 0,00 h 0 W/m 3,7 km/h (1 Bft)
04.03.2013 23:00 -0,9 C 86 % 1015,7 hPa 0,0 l/m NO 0,00 h 0 W/m 3,3 km/h (1 Bft)
05.03.2013 00:00 -1,5 C 88 % 1015,3 hPa 0,0 l/m N 0,00 h 0 W/m 2,5 km/h (1 Bft)
05.03.2013 01:00 -2,0 C 89 % 1015,0 hPa 0,0 l/m N 0,00 h 0 W/m 2,8 km/h (1 Bft)
05.03.2013 02:00 -2,4 C 91 % 1014,7 hPa 0,0 l/m NO 0,00 h 0 W/m 3,1 km/h (1 Bft)
05.03.2013 03:00 -2,7 C 91 % 1014,4 hPa 0,0 l/m N 0,00 h 0 W/m 2,8 km/h (1 Bft)
05.03.2013 04:00 -3,0 C 92 % 1014,1 hPa 0,0 l/m N 0,00 h 0 W/m 3,2 km/h (1 Bft)
05.03.2013 05:00 -3,3 C 92 % 1013,9 hPa 0,0 l/m N 0,00 h 0 W/m 3,5 km/h (1 Bft)
05.03.2013 06:00 -3,6 C 93 % 1013,6 hPa 0,0 l/m NO 0,00 h 5 W/m 3,1 km/h (1 Bft)
05.03.2013 07:00 -3,8 C 93 % 1013,6 hPa 0,0 l/m NO 0,08 h 34 W/m 4,4 km/h (1 Bft)
05.03.2013 08:00 -2,4 C 93 % 1013,5 hPa 0,0 l/m N-NO 0,75 h 168 W/m 6,1 km/h (2 Bft)
05.03.2013 09:00 -0,2 C 88 % 1013,5 hPa 0,0 l/m N-NO 1,00 h 345 W/m 5,5 km/h (1 Bft)
05.03.2013 10:00 3,1 C 78 % 1012,9 hPa 0,0 l/m N-NO 1,00 h 492 W/m 3,6 km/h (1 Bft)
05.03.2013 11:00 7,3 C 57 % 1012,5 hPa 0,0 l/m N-NO 1,00 h 583 W/m 4,3 km/h (1 Bft)
05.03.2013 12:00 10,8 C 42 % 1012,0 hPa 0,0 l/m S-SW 1,00 h 540 W/m 8,2 km/h (2 Bft)
05.03.2013 13:00 12,1 C 37 % 1011,0 hPa 0,0 l/m S-SW 1,00 h 459 W/m 12,6 km/h (3 Bft)
05.03.2013 14:00 12,7 C 37 % 1010,2 hPa 0,0 l/m S-SW 0,83 h 412 W/m 14,8 km/h (3 Bft)
05.03.2013 15:00 13,4 C 33 % 1009,7 hPa 0,0 l/m SW 0,83 h 315 W/m 21,7 km/h (4 Bft)
05.03.2013 16:00 12,6 C 32 % 1009,2 hPa 0,0 l/m SW 0,58 h 204 W/m 24,5 km/h (4 Bft)
05.03.2013 17:00 10,8 C 36 % 1008,9 hPa 0,0 l/m SW 0,00 h 26 W/m 13,1 km/h (3 Bft)
05.03.2013 18:00 9,5 C 42 % 1008,7 hPa 0,0 l/m S-SW 0,00 h 5 W/m 2,4 km/h (1 Bft)
05.03.2013 19:00 7,7 C 49 % 1008,5 hPa 0,0 l/m N 0,00 h 0 W/m 0,4 km/h (0 Bft)
05.03.2013 20:00 5,8 C 56 % 1008,1 hPa 0,0 l/m N 0,00 h 0 W/m 0,0 km/h (0 Bft)
05.03.2013 21:00 4,3 C 60 % 1008,0 hPa 0,0 l/m N 0,00 h 0 W/m 0,0 km/h (0 Bft)
05.03.2013 22:00 2,9 C 63 % 1007,8 hPa 0,0 l/m N 0,00 h 0 W/m 0,1 km/h (0 Bft)
05.03.2013 23:00 1,8 C 68 % 1007,5 hPa 0,0 l/m N 0,00 h 0 W/m 1,2 km/h (1 Bft)
06.03.2013 00:00 1,1 C 72 % 1007,2 hPa 0,0 l/m N 0,00 h 0 W/m 1,5 km/h (1 Bft)
06.03.2013 01:00 0,5 C 74 % 1007,2 hPa 0,0 l/m N 0,00 h 0 W/m 0,7 km/h (0 Bft)
06.03.2013 02:00 0,0 C 78 % 1006,9 hPa 0,0 l/m N 0,00 h 0 W/m 1,9 km/h (1 Bft)
06.03.2013 03:00 -0,3 C 81 % 1006,1 hPa 0,0 l/m N 0,00 h 0 W/m 0,7 km/h (0 Bft)
06.03.2013 04:00 -0,7 C 82 % 1005,7 hPa 0,0 l/m N 0,00 h 0 W/m 1,9 km/h (1 Bft)
06.03.2013 05:00 -0,8 C 85 % 1005,3 hPa 0,0 l/m N 0,00 h 0 W/m 2,9 km/h (1 Bft)
06.03.2013 06:00 -0,8 C 86 % 1004,6 hPa 0,0 l/m N 0,00 h 5 W/m 2,1 km/h (1 Bft)
06.03.2013 07:00 -0,7 C 87 % 1004,4 hPa 0,0 l/m W 0,00 h 32 W/m 3,3 km/h (1 Bft)
06.03.2013 08:00 1,2 C 84 % 1004,0 hPa 0,0 l/m W-NW 0,00 h 75 W/m 4,9 km/h (1 Bft)
06.03.2013 09:00 3,7 C 74 % 1003,5 hPa 0,0 l/m NW 0,25 h 179 W/m 5,5 km/h (1 Bft)
06.03.2013 10:00 6,6 C 63 % 1002,8 hPa 0,0 l/m N-NO 0,83 h 413 W/m 9,0 km/h (2 Bft)
06.03.2013 11:00 8,7 C 54 % 1002,2 hPa 0,0 l/m N-NO 0,92 h 469 W/m 6,8 km/h (2 Bft)
06.03.2013 12:00 10,9 C 51 % 1001,3 hPa 0,0 l/m O 1,00 h 607 W/m 8,2 km/h (2 Bft)
06.03.2013 13:00 12,3 C 50 % 1000,6 hPa 0,0 l/m O 0,75 h 386 W/m 9,3 km/h (2 Bft)
06.03.2013 14:00 11,6 C 56 % 1000,0 hPa 0,0 l/m O-NO 0,00 h 146 W/m 7,4 km/h (2 Bft)
06.03.2013 15:00 12,5 C 56 % 999,7 hPa 0,0 l/m O-NO 0,83 h 337 W/m 7,2 km/h (2 Bft)
06.03.2013 16:00 13,2 C 53 % 999,4 hPa 0,0 l/m O 0,50 h 166 W/m 8,1 km/h (2 Bft)
06.03.2013 17:00 11,3 C 61 % 999,2 hPa 0,0 l/m N 0,00 h 30 W/m 1,3 km/h (1 Bft)
06.03.2013 18:00 9,7 C 65 % 999,4 hPa 0,0 l/m O 0,00 h 5 W/m 2,1 km/h (1 Bft)
06.03.2013 19:00 7,9 C 72 % 999,8 hPa 0,0 l/m O 0,00 h 0 W/m 2,3 km/h (1 Bft)
06.03.2013 20:00 7,0 C 76 % 999,7 hPa 0,0 l/m N 0,00 h 0 W/m 1,9 km/h (1 Bft)
06.03.2013 21:00 6,5 C 79 % 999,5 hPa 0,0 l/m O 0,00 h 0 W/m 3,7 km/h (1 Bft)
06.03.2013 22:00 6,2 C 81 % 999,1 hPa 0,0 l/m NO 0,00 h 0 W/m 3,6 km/h (1 Bft)
06.03.2013 23:00 5,6 C 80 % 999,0 hPa 0,0 l/m N 0,00 h 0 W/m 0,3 km/h (0 Bft)
07.03.2013 00:00 4,2 C 83 % 998,9 hPa 0,0 l/m NO 0,00 h 0 W/m 2,7 km/h (1 Bft)
07.03.2013 01:00 3,4 C 86 % 998,9 hPa 0,0 l/m N 0,00 h 0 W/m 3,1 km/h (1 Bft)
07.03.2013 02:00 3,1 C 89 % 998,9 hPa 0,0 l/m N 0,00 h 0 W/m 0,4 km/h (0 Bft)
07.03.2013 03:00 3,2 C 91 % 999,0 hPa 0,0 l/m N 0,00 h 0 W/m 0,3 km/h (0 Bft)
07.03.2013 04:00 3,2 C 91 % 999,0 hPa 0,0 l/m N 0,00 h 0 W/m 1,2 km/h (1 Bft)
07.03.2013 05:00 3,0 C 91 % 999,2 hPa 0,0 l/m N 0,00 h 0 W/m 1,1 km/h (0 Bft)
07.03.2013 06:00 2,8 C 92 % 999,2 hPa 0,0 l/m N 0,00 h 5 W/m 0,7 km/h (0 Bft)
07.03.2013 07:00 2,6 C 92 % 999,5 hPa 0,0 l/m NO 0,00 h 20 W/m 2,0 km/h (1 Bft)
07.03.2013 08:00 3,5 C 92 % 1000,0 hPa 0,0 l/m N 0,00 h 102 W/m 0,5 km/h (0 Bft)
07.03.2013 09:00 7,3 C 82 % 999,9 hPa 0,0 l/m NO 0,92 h 366 W/m 2,1 km/h (1 Bft)
07.03.2013 10:00 10,6 C 67 % 1000,0 hPa 0,0 l/m NO 0,33 h 273 W/m 4,8 km/h (1 Bft)
07.03.2013 11:00 12,6 C 61 % 1000,0 hPa 0,0 l/m NO 0,33 h 350 W/m 4,1 km/h (1 Bft)
07.03.2013 12:00 14,5 C 55 % 999,7 hPa 0,0 l/m NO 0,83 h 544 W/m 5,6 km/h (1 Bft)
07.03.2013 13:00 16,0 C 51 % 999,4 hPa 0,0 l/m O-SO 0,92 h 584 W/m 7,8 km/h (2 Bft)
07.03.2013 14:00 16,4 C 50 % 999,0 hPa 0,0 l/m SW 0,92 h 481 W/m 10,2 km/h (2 Bft)
07.03.2013 15:00 16,3 C 52 % 998,9 hPa 0,0 l/m S-SW 0,92 h 409 W/m 11,7 km/h (2 Bft)
07.03.2013 16:00 15,0 C 56 % 998,7 hPa 0,0 l/m SW 0,25 h 137 W/m 11,8 km/h (2 Bft)
07.03.2013 17:00 13,4 C 62 % 998,9 hPa 0,0 l/m SW 0,00 h 29 W/m 8,1 km/h (2 Bft)
07.03.2013 18:00 12,4 C 66 % 999,1 hPa 0,0 l/m N 0,00 h 6 W/m 1,7 km/h (1 Bft)
07.03.2013 19:00 11,0 C 70 % 999,7 hPa 0,0 l/m N 0,00 h 0 W/m 0,3 km/h (0 Bft)
07.03.2013 20:00 9,9 C 74 % 1000,3 hPa 0,0 l/m N 0,00 h 0 W/m 0,0 km/h (0 Bft)
07.03.2013 21:00 9,5 C 77 % 1000,9 hPa 0,0 l/m W-SW 0,00 h 0 W/m 3,1 km/h (1 Bft)
07.03.2013 22:00 8,8 C 80 % 1000,3 hPa 0,0 l/m W-SW 0,00 h 0 W/m 2,0 km/h (1 Bft)
07.03.2013 23:00 7,6 C 81 % 999,8 hPa 0,0 l/m N 0,00 h 0 W/m 0,3 km/h (0 Bft)
08.03.2013 00:00 6,7 C 83 % 999,7 hPa 0,0 l/m N 0,00 h 0 W/m 0,0 km/h (0 Bft)
08.03.2013 01:00 5,4 C 83 % 999,8 hPa 0,0 l/m N 0,00 h 0 W/m 0,0 km/h (0 Bft)
08.03.2013 02:00 4,0 C 86 % 999,5 hPa 0,0 l/m N 0,00 h 0 W/m 0,0 km/h (0 Bft)
08.03.2013 03:00 3,1 C 87 % 999,2 hPa 0,0 l/m N 0,00 h 0 W/m 0,0 km/h (0 Bft)
08.03.2013 04:00 2,3 C 88 % 998,6 hPa 0,0 l/m N 0,00 h 0 W/m 1,6 km/h (1 Bft)
08.03.2013 05:00 1,8 C 90 % 998,3 hPa 0,0 l/m N 0,00 h 0 W/m 1,1 km/h (0 Bft)
08.03.2013 06:00 1,9 C 93 % 998,1 hPa 0,0 l/m W-NW 0,00 h 6 W/m 5,2 km/h (1 Bft)
08.03.2013 07:00 2,7 C 95 % 998,2 hPa 0,0 l/m W-NW 0,08 h 35 W/m 6,4 km/h (2 Bft)
08.03.2013 08:00 3,7 C 96 % 998,1 hPa 0,0 l/m NW 0,50 h 160 W/m 7,1 km/h (2 Bft)
08.03.2013 09:00 6,2 C 88 % 998,1 hPa 0,0 l/m N 1,00 h 355 W/m 6,4 km/h (2 Bft)
08.03.2013 10:00 9,4 C 76 % 997,7 hPa 0,0 l/m N 0,83 h 370 W/m 7,1 km/h (2 Bft)
08.03.2013 11:00 12,4 C 66 % 997,5 hPa 0,0 l/m N 1,00 h 595 W/m 5,1 km/h (1 Bft)
08.03.2013 12:00 14,7 C 57 % 997,4 hPa 0,0 l/m NO 1,00 h 568 W/m 8,2 km/h (2 Bft)
08.03.2013 13:00 16,4 C 53 % 997,0 hPa 0,0 l/m NO 1,00 h 563 W/m 8,9 km/h (2 Bft)
08.03.2013 14:00 17,1 C 50 % 996,6 hPa 0,0 l/m O-NO 1,00 h 515 W/m 9,5 km/h (2 Bft)
08.03.2013 15:00 17,3 C 46 % 996,7 hPa 0,0 l/m O 1,00 h 341 W/m 8,3 km/h (2 Bft)
08.03.2013 16:00 16,7 C 50 % 996,9 hPa 0,0 l/m NO 0,75 h 180 W/m 6,7 km/h (2 Bft)
08.03.2013 17:00 14,8 C 57 % 997,7 hPa 0,0 l/m W-SW 0,00 h 27 W/m 14,8 km/h (3 Bft)
08.03.2013 18:00 12,5 C 63 % 999,0 hPa 0,6 l/m W-SW 0,00 h 0 W/m 17,8 km/h (3 Bft)
08.03.2013 19:00 9,8 C 85 % 1000,3 hPa 1,8 l/m W 0,00 h 0 W/m 17,9 km/h (3 Bft)
08.03.2013 20:00 8,9 C 90 % 1001,1 hPa 0,2 l/m W 0,00 h 0 W/m 11,1 km/h (2 Bft)
08.03.2013 21:00 8,5 C 90 % 1001,6 hPa 0,2 l/m W-SW 0,00 h 0 W/m 9,9 km/h (2 Bft)
08.03.2013 22:00 8,1 C 92 % 1002,0 hPa 0,2 l/m SW 0,00 h 0 W/m 11,3 km/h (2 Bft)
08.03.2013 23:00 7,7 C 94 % 1002,0 hPa 0,6 l/m S-SW 0,00 h 0 W/m 11,6 km/h (2 Bft)
09.03.2013 00:00 7,5 C 96 % 1001,9 hPa 1,0 l/m SW 0,00 h 0 W/m 12,1 km/h (2 Bft)
09.03.2013 01:00 7,3 C 97 % 1002,0 hPa 1,0 l/m SW 0,00 h 0 W/m 13,4 km/h (3 Bft)
09.03.2013 02:00 7,3 C 97 % 1002,4 hPa 0,6 l/m W-SW 0,00 h 0 W/m 15,3 km/h (3 Bft)
09.03.2013 03:00 7,3 C 97 % 1002,3 hPa 0,0 l/m W-SW 0,00 h 0 W/m 14,5 km/h (3 Bft)
09.03.2013 04:00 7,2 C 97 % 1002,3 hPa 0,2 l/m SW 0,00 h 0 W/m 9,5 km/h (2 Bft)
09.03.2013 05:00 7,1 C 97 % 1002,2 hPa 0,0 l/m SW 0,00 h 0 W/m 7,6 km/h (2 Bft)
09.03.2013 06:00 6,9 C 97 % 1002,2 hPa 0,0 l/m SW 0,00 h 5 W/m 9,5 km/h (2 Bft)
09.03.2013 07:00 6,7 C 97 % 1002,2 hPa 0,0 l/m SW 0,00 h 16 W/m 5,9 km/h (2 Bft)
09.03.2013 08:00 7,0 C 97 % 1002,1 hPa 0,0 l/m S-SW 0,17 h 104 W/m 8,2 km/h (2 Bft)
09.03.2013 09:00 8,2 C 95 % 1001,9 hPa 0,0 l/m SW 0,83 h 301 W/m 14,0 km/h (3 Bft)
09.03.2013 10:00 9,8 C 87 % 1001,8 hPa 0,0 l/m SW 0,50 h 306 W/m 14,0 km/h (3 Bft)
09.03.2013 11:00 11,1 C 78 % 1001,4 hPa 0,0 l/m SW 0,58 h 350 W/m 11,6 km/h (2 Bft)
09.03.2013 12:00 10,8 C 77 % 1001,2 hPa 0,0 l/m NW 0,00 h 115 W/m 6,7 km/h (2 Bft)
09.03.2013 13:00 11,0 C 74 % 1000,5 hPa 0,0 l/m W 0,08 h 142 W/m 3,2 km/h (1 Bft)
09.03.2013 14:00 12,3 C 54 % 1000,2 hPa 0,0 l/m W 0,33 h 229 W/m 12,0 km/h (2 Bft)
09.03.2013 15:00 12,6 C 53 % 1000,1 hPa 0,0 l/m SW 0,67 h 219 W/m 9,7 km/h (2 Bft)
09.03.2013 16:00 12,2 C 53 % 1000,0 hPa 0,0 l/m W-SW 0,00 h 90 W/m 7,3 km/h (2 Bft)
09.03.2013 17:00 11,7 C 57 % 999,8 hPa 0,0 l/m W 0,00 h 25 W/m 3,2 km/h (1 Bft)
09.03.2013 18:00 10,8 C 70 % 1000,1 hPa 0,0 l/m W-SW 0,00 h 6 W/m 7,6 km/h (2 Bft)
09.03.2013 19:00 9,4 C 77 % 1000,3 hPa 0,0 l/m SW 0,00 h 0 W/m 10,9 km/h (2 Bft)
09.03.2013 20:00 8,8 C 78 % 1000,5 hPa 0,0 l/m SW 0,00 h 0 W/m 6,2 km/h (2 Bft)
09.03.2013 21:00 8,2 C 80 % 1000,7 hPa 0,0 l/m W 0,00 h 0 W/m 5,5 km/h (1 Bft)
09.03.2013 22:00 8,5 C 79 % 1000,7 hPa 0,0 l/m W 0,00 h 0 W/m 7,2 km/h (2 Bft)
09.03.2013 23:00 8,0 C 83 % 1000,6 hPa 0,2 l/m N 0,00 h 0 W/m 1,9 km/h (1 Bft)
10.03.2013 00:00 7,1 C 86 % 1000,6 hPa 0,0 l/m N 0,00 h 0 W/m 1,9 km/h (1 Bft)
10.03.2013 01:00 6,4 C 87 % 1000,6 hPa 0,0 l/m N 0,00 h 0 W/m 1,6 km/h (1 Bft)
10.03.2013 02:00 5,8 C 89 % 1000,3 hPa 0,0 l/m NW 0,00 h 0 W/m 4,9 km/h (1 Bft)
10.03.2013 03:00 5,7 C 91 % 1000,0 hPa 0,0 l/m N 0,00 h 0 W/m 1,6 km/h (1 Bft)
10.03.2013 04:00 6,0 C 92 % 999,8 hPa 0,4 l/m W 0,00 h 0 W/m 9,1 km/h (2 Bft)
10.03.2013 05:00 6,2 C 91 % 999,5 hPa 1,2 l/m W-SW 0,00 h 0 W/m 8,0 km/h (2 Bft)
10.03.2013 06:00 5,6 C 93 % 999,1 hPa 0,0 l/m S-SW 0,00 h 0 W/m 6,0 km/h (2 Bft)
10.03.2013 07:00 5,4 C 94 % 999,2 hPa 0,0 l/m S-SW 0,00 h 21 W/m 3,5 km/h (1 Bft)
10.03.2013 08:00 6,1 C 96 % 999,1 hPa 0,0 l/m S-SW 0,00 h 98 W/m 5,6 km/h (1 Bft)
10.03.2013 09:00 7,3 C 94 % 998,7 hPa 0,0 l/m S-SW 0,67 h 343 W/m 8,2 km/h (2 Bft)
10.03.2013 10:00 9,3 C 84 % 998,1 hPa 0,0 l/m SW 0,75 h 419 W/m 12,6 km/h (3 Bft)
10.03.2013 11:00 9,9 C 78 % 997,8 hPa 0,0 l/m W-SW 0,17 h 228 W/m 14,1 km/h (3 Bft)
10.03.2013 12:00 10,0 C 75 % 997,6 hPa 0,0 l/m W-SW 0,33 h 320 W/m 19,3 km/h (3 Bft)
10.03.2013 13:00 10,7 C 70 % 997,1 hPa 0,0 l/m W-SW 0,50 h 380 W/m 22,3 km/h (4 Bft)
10.03.2013 14:00 11,0 C 69 % 996,6 hPa 0,0 l/m W 0,25 h 261 W/m 21,7 km/h (4 Bft)
10.03.2013 15:00 9,4 C 74 % 996,7 hPa 0,8 l/m W-NW 0,00 h 42 W/m 16,6 km/h (3 Bft)
10.03.2013 16:00 7,8 C 88 % 996,7 hPa 1,2 l/m W 0,42 h 172 W/m 8,0 km/h (2 Bft)
10.03.2013 17:00 9,2 C 84 % 996,4 hPa 0,0 l/m W 0,33 h 69 W/m 4,5 km/h (1 Bft)
10.03.2013 18:00 8,3 C 85 % 996,8 hPa 0,0 l/m W-SW 0,08 h 10 W/m 5,1 km/h (1 Bft)
10.03.2013 19:00 7,0 C 85 % 997,2 hPa 0,0 l/m W-SW 0,00 h 0 W/m 2,3 km/h (1 Bft)
10.03.2013 20:00 5,5 C 88 % 997,6 hPa 0,0 l/m W 0,00 h 0 W/m 4,3 km/h (1 Bft)
10.03.2013 21:00 5,3 C 91 % 997,7 hPa 0,0 l/m N 0,00 h 0 W/m 0,9 km/h (0 Bft)
10.03.2013 22:00 5,4 C 92 % 997,7 hPa 0,0 l/m W 0,00 h 0 W/m 3,2 km/h (1 Bft)
10.03.2013 23:00 5,3 C 93 % 997,9 hPa 0,0 l/m N 0,00 h 0 W/m 2,3 km/h (1 Bft)
Min-Datum _ 04.03.13 05.03.13 10.03.13 - - - - 05.03.13
_ Min-Zeit 07:05 16:25 14:30 - - - - 04:10
Minimum _ -4,5 C 29 % 996,3 hPa - - - - 0,0 km/h (0 Bft)
Max-Datum _ 08.03.13 09.03.13 04.03.13 08.03.13 - 04.03.13 10.03.13 05.03.13
_ Max-Zeit 14:30 08:30 08:50 19:05 - 09:25 13:50 16:15
Maximum _ 17,4 C 98 % 1020,7 hPa 1,8 l/m - 0,08 h 721 W/m 35,4 km/h
SW (5 Bft)
Durchschnitt _ 6,2 C 77 % 1004,3 hPa #10,2 l/m SW #41:25 h 246 W/m 6,5 km/h (2 Bft)